createdAt,value
2022-12-03T00:00:16.414Z,85.40
2022-12-03T00:03:05.052Z,85.45
2022-12-03T00:05:33.889Z,85.47
2022-12-03T00:08:02.344Z,85.54
2022-12-03T00:10:30.953Z,85.53
2022-12-03T00:12:59.580Z,85.66
2022-12-03T00:15:28.187Z,85.30
2022-12-03T00:17:56.707Z,85.32
2022-12-03T00:20:25.494Z,85.29
2022-12-03T00:22:53.876Z,85.44
2022-12-03T00:25:22.459Z,85.19
2022-12-03T00:27:51.657Z,85.17
2022-12-03T00:30:19.934Z,85.32
2022-12-03T00:32:48.212Z,85.38
2022-12-03T00:35:17.167Z,85.59
2022-12-03T00:37:45.686Z,85.52
2022-12-03T00:40:14.577Z,85.53
2022-12-03T00:42:43.265Z,85.34
2022-12-03T00:45:11.950Z,85.30
2022-12-03T00:47:40.329Z,85.31
2022-12-03T00:50:09.530Z,85.41
2022-12-03T00:52:37.906Z,85.50
2022-12-03T00:55:06.900Z,85.41
2022-12-03T00:57:35.690Z,85.67
2022-12-03T01:00:04.832Z,85.73
2022-12-03T01:02:33.374Z,85.35
2022-12-03T01:05:02.657Z,85.39
2022-12-03T01:07:31.417Z,85.39
2022-12-03T01:09:59.840Z,85.21
2022-12-03T01:12:28.533Z,85.38
2022-12-03T01:14:56.968Z,85.28
2022-12-03T01:17:25.389Z,85.33
2022-12-03T01:19:54.277Z,85.51
2022-12-03T01:22:22.761Z,85.54
2022-12-03T01:24:51.677Z,85.43
2022-12-03T01:27:20.746Z,85.59
2022-12-03T01:29:49.330Z,85.62
2022-12-03T01:32:18.026Z,85.39
2022-12-03T01:34:47.678Z,85.61
2022-12-03T01:37:16.776Z,85.55
2022-12-03T01:39:45.304Z,85.69
2022-12-03T01:42:22.797Z,85.46
2022-12-03T01:44:52.997Z,85.50
2022-12-03T01:47:25.055Z,85.45
2022-12-03T01:49:55.180Z,85.33
2022-12-03T01:52:27.582Z,85.55
2022-12-03T01:54:57.252Z,85.51
2022-12-03T01:57:27.522Z,85.44
2022-12-03T01:59:56.579Z,85.37
2022-12-03T02:02:26.363Z,85.29
2022-12-03T02:04:55.707Z,85.51
2022-12-03T02:07:26.210Z,85.63
2022-12-03T02:09:55.756Z,85.66
2022-12-03T02:12:36.712Z,85.48
2022-12-03T02:15:06.441Z,85.85
2022-12-03T02:17:35.483Z,85.97
2022-12-03T02:20:07.807Z,86.46
2022-12-03T02:22:56.769Z,86.49
2022-12-03T02:25:26.377Z,86.47
2022-12-03T02:27:55.478Z,86.25
2022-12-03T02:30:24.947Z,86.37
2022-12-03T02:32:54.281Z,86.55
2022-12-03T02:35:24.816Z,86.92
2022-12-03T02:37:59.911Z,86.71
2022-12-03T02:40:31.503Z,86.79
2022-12-03T02:43:01.584Z,86.87
2022-12-03T02:45:41.878Z,86.89
2022-12-03T02:48:30.638Z,86.89
2022-12-03T02:51:01.268Z,86.85
2022-12-03T02:53:42.721Z,86.79
2022-12-03T02:56:12.465Z,86.55
2022-12-03T02:58:41.739Z,86.55
2022-12-03T03:01:11.254Z,86.66
2022-12-03T03:03:40.367Z,86.92
2022-12-03T03:06:08.952Z,86.94
2022-12-03T03:08:38.425Z,86.96
2022-12-03T03:11:06.938Z,86.76
2022-12-03T03:13:35.875Z,86.77
2022-12-03T03:16:06.075Z,86.39
2022-12-03T03:18:34.842Z,86.60
2022-12-03T03:21:04.247Z,86.85
2022-12-03T03:23:32.931Z,86.80
2022-12-03T03:26:01.515Z,86.72
2022-12-03T03:28:30.673Z,86.69
2022-12-03T03:31:01.038Z,86.52
2022-12-03T03:33:29.864Z,86.53
2022-12-03T03:36:00.766Z,86.29
2022-12-03T03:38:30.273Z,86.16
2022-12-03T03:40:59.630Z,86.07
2022-12-03T03:43:29.289Z,86.14
2022-12-03T03:45:57.816Z,85.89
2022-12-03T03:48:26.556Z,86.12
2022-12-03T03:50:55.140Z,86.20
2022-12-03T03:53:24.907Z,86.44
2022-12-03T03:55:53.715Z,86.34
2022-12-03T03:58:22.324Z,86.51
2022-12-03T04:00:51.448Z,86.60
2022-12-03T04:03:19.905Z,86.59
2022-12-03T04:05:51.252Z,86.06
2022-12-03T04:08:19.938Z,86.25
2022-12-03T04:11:07.465Z,86.39
2022-12-03T04:13:36.049Z,86.42
2022-12-03T04:16:04.794Z,86.25
2022-12-03T04:18:45.168Z,86.10
2022-12-03T04:21:36.925Z,85.80
2022-12-03T04:24:06.027Z,85.72
2022-12-03T04:26:53.550Z,85.62
2022-12-03T04:29:22.403Z,85.92
2022-12-03T04:32:10.084Z,86.07
2022-12-03T04:34:57.181Z,86.13
2022-12-03T04:37:25.958Z,86.37
2022-12-03T04:39:54.609Z,86.45
2022-12-03T04:42:23.128Z,86.38
2022-12-03T04:44:52.304Z,86.37
2022-12-03T04:47:21.954Z,86.23
2022-12-03T04:49:51.376Z,86.13
2022-12-03T04:52:21.374Z,86.24
2022-12-03T04:54:49.758Z,86.24
2022-12-03T04:57:18.720Z,86.04
2022-12-03T04:59:47.443Z,86.20
2022-12-03T05:02:15.901Z,86.52
2022-12-03T05:04:45.317Z,86.44
2022-12-03T05:07:14.004Z,86.58
2022-12-03T05:09:42.282Z,86.79
2022-12-03T05:12:10.660Z,86.70
2022-12-03T05:14:39.450Z,86.74
2022-12-03T05:17:08.086Z,86.89
2022-12-03T05:19:55.356Z,86.97
2022-12-03T05:22:23.824Z,87.02
2022-12-03T05:24:52.338Z,87.08
2022-12-03T05:27:24.195Z,87.01
2022-12-03T05:29:53.278Z,87.13
2022-12-03T05:32:21.831Z,87.09
2022-12-03T05:34:50.738Z,86.97
2022-12-03T05:37:19.438Z,87.19
2022-12-03T05:39:47.920Z,87.02
2022-12-03T05:42:35.347Z,87.20
2022-12-03T05:45:04.135Z,87.07
2022-12-03T05:47:32.413Z,87.14
2022-12-03T05:50:00.994Z,87.41
2022-12-03T05:52:29.476Z,87.53
2022-12-03T05:54:57.754Z,87.89
2022-12-03T05:57:26.407Z,87.91
2022-12-03T05:59:54.821Z,88.11
2022-12-03T06:02:23.405Z,87.97
2022-12-03T06:04:52.659Z,87.71
2022-12-03T06:07:21.384Z,87.94
2022-12-03T06:09:49.668Z,88.01
2022-12-03T06:12:18.422Z,88.03
2022-12-03T06:14:47.332Z,87.77
2022-12-03T06:17:15.806Z,88.03
2022-12-03T06:19:44.313Z,87.58
2022-12-03T06:22:13.508Z,87.59
2022-12-03T06:24:42.039Z,87.78
2022-12-03T06:27:10.478Z,87.59
2022-12-03T06:29:39.158Z,88.08
2022-12-03T06:32:07.857Z,87.99
2022-12-03T06:34:36.635Z,88.30
2022-12-03T06:37:05.118Z,88.25
2022-12-03T06:39:33.563Z,88.37
2022-12-03T06:42:03.386Z,88.28
2022-12-03T06:44:32.303Z,88.40
2022-12-03T06:47:00.760Z,88.75
2022-12-03T06:49:29.673Z,88.70
2022-12-03T06:51:58.155Z,88.64
2022-12-03T06:54:26.638Z,87.99
2022-12-03T06:56:55.549Z,88.07
2022-12-03T06:59:24.125Z,88.24
2022-12-03T07:01:52.526Z,88.22
2022-12-03T07:04:21.291Z,88.21
2022-12-03T07:06:50.070Z,87.74
2022-12-03T07:09:18.382Z,87.82
2022-12-03T07:11:47.145Z,87.90
2022-12-03T07:14:15.826Z,87.52
2022-12-03T07:16:44.380Z,87.69
2022-12-03T07:19:12.989Z,88.01
2022-12-03T07:21:41.576Z,88.03
2022-12-03T07:24:10.467Z,87.45
2022-12-03T07:26:39.055Z,87.46
2022-12-03T07:29:07.634Z,87.15
2022-12-03T07:31:36.174Z,87.15
2022-12-03T07:34:04.495Z,86.85
2022-12-03T07:36:33.252Z,86.39
2022-12-03T07:39:01.969Z,86.76
2022-12-03T07:41:30.351Z,86.68
2022-12-03T07:43:59.137Z,86.29
2022-12-03T07:46:27.661Z,86.05
2022-12-03T07:48:56.098Z,85.88
2022-12-03T07:51:28.971Z,85.59
2022-12-03T07:54:00.950Z,85.67
2022-12-03T07:56:29.633Z,85.19
2022-12-03T07:58:58.422Z,85.72
2022-12-03T08:01:27.004Z,85.71
2022-12-03T08:03:55.661Z,85.37
2022-12-03T08:06:24.276Z,85.17
2022-12-03T08:08:52.759Z,85.06
2022-12-03T08:11:21.546Z,84.68
2022-12-03T08:13:49.930Z,84.60
2022-12-03T08:16:19.930Z,84.90
2022-12-03T08:18:49.046Z,84.78
2022-12-03T08:21:21.740Z,84.89
2022-12-03T08:23:50.612Z,84.93
2022-12-03T08:26:23.734Z,85.10
2022-12-03T08:28:53.323Z,85.35
2022-12-03T08:31:29.308Z,85.19
2022-12-03T08:34:19.465Z,85.36
2022-12-03T08:36:48.528Z,84.98
2022-12-03T08:39:23.794Z,84.80
2022-12-03T08:42:15.725Z,84.58
2022-12-03T08:44:44.615Z,84.47
2022-12-03T08:47:16.853Z,84.54
2022-12-03T08:49:48.134Z,84.04
2022-12-03T08:52:18.217Z,84.19
2022-12-03T08:54:54.071Z,84.70
2022-12-03T08:57:24.097Z,84.00
2022-12-03T08:59:54.757Z,83.97
2022-12-03T09:02:27.335Z,84.49
2022-12-03T09:04:56.386Z,84.10
2022-12-03T09:07:24.973Z,84.43
2022-12-03T09:09:53.805Z,84.20
2022-12-03T09:12:22.437Z,84.68
2022-12-03T09:14:50.965Z,84.43
2022-12-03T09:17:19.863Z,83.77
2022-12-03T09:19:48.450Z,83.96
2022-12-03T09:22:17.648Z,84.40
2022-12-03T09:24:46.129Z,84.23
2022-12-03T09:27:14.710Z,84.14
2022-12-03T09:29:43.145Z,83.82
2022-12-03T09:32:16.683Z,83.98
2022-12-03T09:34:47.121Z,83.29
2022-12-03T09:37:15.615Z,83.19
2022-12-03T09:39:43.877Z,83.37
2022-12-03T09:42:12.666Z,83.13
2022-12-03T09:44:41.455Z,82.96
2022-12-03T09:47:10.114Z,82.77
2022-12-03T09:49:39.137Z,83.37
2022-12-03T09:52:07.821Z,83.19
2022-12-03T09:54:40.526Z,82.99
2022-12-03T09:57:13.929Z,82.73
2022-12-03T09:59:42.405Z,82.59
2022-12-03T10:02:20.082Z,82.79
2022-12-03T10:04:49.189Z,82.71
2022-12-03T10:07:18.169Z,83.01
2022-12-03T10:09:46.652Z,83.19
2022-12-03T10:12:15.645Z,82.70
2022-12-03T10:14:44.078Z,82.86
2022-12-03T10:17:12.860Z,82.90
2022-12-03T10:19:42.932Z,82.87
2022-12-03T10:22:11.322Z,82.61
2022-12-03T10:24:40.474Z,82.51
2022-12-03T10:27:22.923Z,82.54
2022-12-03T10:29:58.566Z,82.84
2022-12-03T10:32:43.923Z,82.46
2022-12-03T10:35:35.673Z,82.64
2022-12-03T10:38:46.831Z,83.20
2022-12-03T10:41:25.555Z,82.89
2022-12-03T10:44:22.744Z,82.60
2022-12-03T10:47:46.866Z,82.50
2022-12-03T10:50:19.495Z,82.91
2022-12-03T10:53:28.020Z,82.70
2022-12-03T10:56:36.435Z,82.93
2022-12-03T10:59:05.325Z,82.85
2022-12-03T11:01:33.681Z,82.10
2022-12-03T11:04:04.997Z,81.79
2022-12-03T11:06:33.947Z,81.66
2022-12-03T11:09:08.812Z,81.60
2022-12-03T11:11:38.186Z,80.79
2022-12-03T11:14:06.537Z,80.39
2022-12-03T11:16:41.073Z,80.38
2022-12-03T11:19:12.433Z,80.68
2022-12-03T11:21:59.763Z,80.26
2022-12-03T11:24:28.545Z,80.28
2022-12-03T11:26:56.823Z,80.35
2022-12-03T11:29:44.144Z,79.81
2022-12-03T11:32:32.493Z,79.73
2022-12-03T11:35:01.040Z,79.75
2022-12-03T11:37:29.884Z,79.79
2022-12-03T11:39:59.678Z,79.95
2022-12-03T11:42:29.695Z,79.76
2022-12-03T11:45:04.757Z,79.87
2022-12-03T11:47:37.616Z,79.02
2022-12-03T11:50:23.811Z,79.10
2022-12-03T11:52:56.698Z,77.80
2022-12-03T11:55:33.376Z,77.61
2022-12-03T11:58:03.901Z,78.16
2022-12-03T12:00:32.486Z,77.71
2022-12-03T12:03:00.939Z,78.34
2022-12-03T12:05:33.955Z,78.16
2022-12-03T12:08:03.271Z,77.57
2022-12-03T12:10:41.465Z,77.59
2022-12-03T12:13:28.480Z,77.16
2022-12-03T12:16:00.175Z,77.84
2022-12-03T12:18:38.250Z,77.55
2022-12-03T12:21:25.980Z,77.22
2022-12-03T12:23:54.568Z,76.95
2022-12-03T12:26:23.045Z,76.74
2022-12-03T12:28:51.628Z,75.57
2022-12-03T12:31:20.221Z,76.29
2022-12-03T12:33:48.694Z,75.62
2022-12-03T12:36:17.077Z,76.22
2022-12-03T12:38:45.865Z,75.68
2022-12-03T12:41:14.245Z,75.74
2022-12-03T12:43:42.622Z,76.16
2022-12-03T12:46:46.076Z,76.11
2022-12-03T12:49:03.240Z,75.93
2022-12-03T12:51:31.618Z,75.75
2022-12-03T12:54:03.177Z,75.95
2022-12-03T12:56:32.595Z,75.09
2022-12-03T12:59:12.057Z,75.16
2022-12-03T13:01:41.588Z,75.65
2022-12-03T13:04:20.859Z,74.90
2022-12-03T13:07:29.318Z,74.45
2022-12-03T13:10:37.799Z,74.78
2022-12-03T13:13:18.263Z,73.73
2022-12-03T13:16:01.290Z,74.64
2022-12-03T13:18:33.141Z,75.26
2022-12-03T13:21:12.068Z,74.93
2022-12-03T13:23:40.653Z,74.03
2022-12-03T13:26:38.206Z,73.98
2022-12-03T13:29:57.033Z,74.77
2022-12-03T13:33:08.788Z,73.28
2022-12-03T13:39:13.601Z,74.20
2022-12-03T13:42:01.571Z,74.27
2022-12-03T13:44:31.895Z,74.05
2022-12-03T13:47:02.740Z,73.89
2022-12-03T13:49:31.211Z,74.55
2022-12-03T13:52:00.889Z,74.68
2022-12-03T13:54:31.502Z,74.90
2022-12-03T13:57:00.548Z,74.71
2022-12-03T13:59:29.102Z,74.78
2022-12-03T14:01:57.494Z,74.51
2022-12-03T14:04:25.998Z,74.44
2022-12-03T14:06:54.542Z,74.43
2022-12-03T14:09:22.957Z,74.13
2022-12-03T14:12:10.281Z,73.85
2022-12-03T14:14:38.762Z,73.96
2022-12-03T14:17:09.749Z,73.93
2022-12-03T14:19:38.594Z,74.69
2022-12-03T14:22:09.532Z,74.95
2022-12-03T14:24:38.117Z,75.07
2022-12-03T14:27:06.700Z,75.13
2022-12-03T14:29:35.184Z,74.65
2022-12-03T14:32:03.815Z,74.95
2022-12-03T14:34:32.248Z,74.75
2022-12-03T14:37:00.741Z,74.24
2022-12-03T14:40:09.140Z,74.05
2022-12-03T14:42:37.836Z,73.56
2022-12-03T14:45:07.135Z,74.11
2022-12-03T14:47:35.796Z,73.90
2022-12-03T14:50:32.857Z,73.70
2022-12-03T14:53:01.355Z,73.38
2022-12-03T14:55:29.988Z,73.10
2022-12-03T14:57:58.313Z,73.43
2022-12-03T15:00:26.801Z,73.76
2022-12-03T15:02:55.325Z,73.89
2022-12-03T15:05:28.616Z,74.32
2022-12-03T15:07:58.124Z,74.92
2022-12-03T15:10:26.672Z,75.44
2022-12-03T15:12:54.944Z,75.32
2022-12-03T15:15:23.834Z,74.72
2022-12-03T15:17:52.418Z,75.03
2022-12-03T15:21:00.633Z,75.30
2022-12-03T15:27:41.943Z,76.34
2022-12-03T15:30:50.589Z,76.67
2022-12-03T15:33:59.186Z,77.39
2022-12-03T15:44:32.096Z,77.39
2022-12-03T15:47:00.515Z,77.83
2022-12-03T15:49:29.098Z,78.21
2022-12-03T15:51:57.887Z,78.40
2022-12-03T15:54:26.053Z,78.48
2022-12-03T15:56:57.403Z,78.80
2022-12-03T15:59:26.505Z,78.61
2022-12-03T16:01:54.972Z,79.05
2022-12-03T16:04:23.881Z,78.51
2022-12-03T16:06:52.841Z,78.96
2022-12-03T16:09:26.723Z,79.11
2022-12-03T16:11:56.388Z,79.52
2022-12-03T16:14:24.668Z,79.73
2022-12-03T16:16:52.943Z,79.73
2022-12-03T16:19:22.144Z,80.18
2022-12-03T16:21:50.424Z,79.93
2022-12-03T16:24:18.898Z,80.18
2022-12-03T16:26:47.586Z,80.17
2022-12-03T16:29:15.965Z,80.43
2022-12-03T16:31:46.096Z,80.40
2022-12-03T16:34:14.772Z,80.32
2022-12-03T16:36:43.149Z,80.14
2022-12-03T16:39:11.738Z,80.12
2022-12-03T16:41:40.636Z,80.34
2022-12-03T16:44:20.065Z,80.33
2022-12-03T16:46:49.144Z,80.61
2022-12-03T16:49:17.642Z,80.78
2022-12-03T16:51:46.224Z,80.67
2022-12-03T16:54:15.217Z,81.01
2022-12-03T16:56:43.684Z,81.08
2022-12-03T16:59:11.977Z,81.22
2022-12-03T17:01:40.815Z,81.77
2022-12-03T17:04:09.554Z,82.02
2022-12-03T17:06:37.835Z,82.09
2022-12-03T17:09:06.722Z,82.24
2022-12-03T17:11:35.156Z,82.48
2022-12-03T17:14:03.599Z,82.74
2022-12-03T17:16:32.264Z,82.72
2022-12-03T17:19:00.546Z,83.03
2022-12-03T17:21:33.616Z,82.86
2022-12-03T17:24:03.757Z,83.03
2022-12-03T17:26:32.236Z,82.72
2022-12-03T17:29:00.727Z,82.94
2022-12-03T17:31:29.618Z,82.98
2022-12-03T17:33:58.192Z,83.12
2022-12-03T17:36:26.469Z,83.01
2022-12-03T17:38:55.359Z,82.79
2022-12-03T17:41:24.252Z,83.04
2022-12-03T17:43:53.986Z,83.18
2022-12-03T17:46:22.844Z,83.22
2022-12-03T17:48:51.380Z,83.29
2022-12-03T17:51:21.352Z,82.85
2022-12-03T17:53:51.064Z,82.86
2022-12-03T17:56:19.442Z,83.07
2022-12-03T17:58:47.718Z,83.26
2022-12-03T18:01:16.670Z,83.06
2022-12-03T18:03:46.468Z,83.29
2022-12-03T18:06:14.871Z,83.46
2022-12-03T18:08:43.282Z,83.58
2022-12-03T18:11:11.867Z,83.48
2022-12-03T18:13:40.354Z,83.60
2022-12-03T18:16:08.949Z,83.83
2022-12-03T18:18:37.459Z,83.69
2022-12-03T18:21:05.894Z,83.74
2022-12-03T18:23:35.501Z,84.02
2022-12-03T18:26:04.292Z,83.87
2022-12-03T18:28:32.773Z,83.54
2022-12-03T18:31:01.384Z,84.00
2022-12-03T18:33:29.837Z,84.29
2022-12-03T18:35:58.441Z,84.33
2022-12-03T18:38:28.347Z,84.51
2022-12-03T18:40:58.056Z,85.00
2022-12-03T18:43:28.270Z,85.21
2022-12-03T18:45:56.648Z,85.26
2022-12-03T18:48:25.642Z,85.24
2022-12-03T18:50:55.044Z,84.86
2022-12-03T18:53:23.322Z,85.12
2022-12-03T18:55:52.216Z,84.96
2022-12-03T18:58:20.774Z,84.94
2022-12-03T19:00:49.117Z,85.05
2022-12-03T19:03:18.045Z,84.89
2022-12-03T19:05:46.653Z,84.69
2022-12-03T19:08:15.423Z,84.96
2022-12-03T19:10:44.473Z,84.64
2022-12-03T19:13:12.819Z,84.51
2022-12-03T19:15:41.408Z,84.58
2022-12-03T19:18:10.086Z,84.33
2022-12-03T19:20:40.099Z,84.42
2022-12-03T19:23:08.481Z,84.22
2022-12-03T19:25:37.371Z,84.36
2022-12-03T19:28:05.952Z,84.53
2022-12-03T19:30:34.444Z,84.43
2022-12-03T19:33:03.225Z,84.10
2022-12-03T19:35:32.935Z,84.10
2022-12-03T19:38:01.315Z,84.08
2022-12-03T19:40:32.458Z,84.06
2022-12-03T19:43:00.714Z,84.24
2022-12-03T19:45:29.078Z,84.22
2022-12-03T19:47:58.209Z,84.22
2022-12-03T19:50:26.898Z,84.17
2022-12-03T19:52:55.173Z,84.24
2022-12-03T19:55:23.964Z,84.18
2022-12-03T19:57:52.463Z,84.09
2022-12-03T20:00:20.925Z,84.28
2022-12-03T20:02:50.289Z,84.43
2022-12-03T20:05:18.910Z,84.47
2022-12-03T20:07:47.285Z,84.64
2022-12-03T20:10:16.079Z,84.81
2022-12-03T20:12:44.458Z,84.77
2022-12-03T20:15:13.990Z,84.57
2022-12-03T20:17:42.552Z,84.69
2022-12-03T20:20:11.131Z,84.67
2022-12-03T20:22:39.613Z,84.50
2022-12-03T20:25:08.504Z,84.45
2022-12-03T20:27:37.294Z,84.49
2022-12-03T20:30:06.186Z,84.44
2022-12-03T20:32:38.220Z,84.04
2022-12-03T20:35:09.498Z,83.70
2022-12-03T20:37:38.079Z,83.41
2022-12-03T20:40:06.716Z,83.55
2022-12-03T20:42:35.145Z,83.61
2022-12-03T20:45:04.148Z,83.58
2022-12-03T20:47:32.415Z,83.69
2022-12-03T20:50:01.103Z,83.86
2022-12-03T20:52:30.310Z,83.94
2022-12-03T20:54:58.577Z,83.89
2022-12-03T20:57:27.260Z,83.89
2022-12-03T20:59:56.415Z,84.08
2022-12-03T21:02:25.027Z,84.08
2022-12-03T21:04:53.732Z,83.74
2022-12-03T21:07:22.339Z,83.76
2022-12-03T21:09:51.108Z,84.05
2022-12-03T21:12:19.692Z,84.08
2022-12-03T21:14:48.478Z,83.95
2022-12-03T21:17:16.962Z,84.06
2022-12-03T21:19:47.185Z,84.20
2022-12-03T21:22:15.867Z,84.06
2022-12-03T21:24:44.252Z,84.03
2022-12-03T21:27:15.797Z,84.13
2022-12-03T21:29:48.889Z,84.17
2022-12-03T21:32:17.228Z,84.16
2022-12-03T21:34:45.651Z,84.13
2022-12-03T21:37:14.232Z,84.01
2022-12-03T21:39:42.713Z,83.96
2022-12-03T21:42:34.153Z,84.10
2022-12-03T21:45:00.065Z,83.73
2022-12-03T21:47:33.462Z,84.02
2022-12-03T21:50:06.745Z,84.38
2022-12-03T21:52:35.741Z,84.78
2022-12-03T21:55:04.118Z,85.12
2022-12-03T21:57:35.223Z,85.66
2022-12-03T22:00:05.532Z,86.20
2022-12-03T22:02:40.540Z,86.47
2022-12-03T22:05:10.397Z,86.67
2022-12-03T22:07:39.733Z,87.06
2022-12-03T22:10:09.536Z,87.11
2022-12-03T22:12:38.381Z,87.41
2022-12-03T22:15:07.127Z,87.21
2022-12-03T22:17:36.097Z,87.41
2022-12-03T22:20:06.137Z,87.48
2022-12-03T22:22:34.418Z,87.54
2022-12-03T22:25:03.202Z,87.44
2022-12-03T22:27:31.684Z,87.38
2022-12-03T22:30:00.186Z,87.48
2022-12-03T22:32:28.956Z,87.57
2022-12-03T22:34:57.539Z,87.93
2022-12-03T22:37:25.699Z,87.94
2022-12-03T22:39:54.606Z,87.93
2022-12-03T22:42:23.495Z,87.96
2022-12-03T22:44:51.772Z,88.06
2022-12-03T22:47:20.356Z,88.28
2022-12-03T22:49:49.146Z,88.63
2022-12-03T22:52:17.626Z,88.70
2022-12-03T22:54:46.148Z,88.69
2022-12-03T22:57:14.588Z,88.70
2022-12-03T22:59:43.071Z,88.75
2022-12-03T23:02:11.729Z,88.68
2022-12-03T23:04:40.444Z,88.76
2022-12-03T23:07:08.926Z,89.04
2022-12-03T23:09:37.384Z,89.37
2022-12-03T23:12:05.992Z,88.99
2022-12-03T23:14:34.472Z,89.03
2022-12-03T23:17:03.055Z,89.10
2022-12-03T23:19:31.642Z,88.86
2022-12-03T23:22:00.020Z,89.02
2022-12-03T23:24:29.425Z,89.06
2022-12-03T23:26:58.179Z,89.06
2022-12-03T23:29:26.387Z,89.58
2022-12-03T23:31:55.072Z,89.75
2022-12-03T23:34:23.609Z,89.68
2022-12-03T23:36:51.955Z,89.94
2022-12-03T23:39:20.517Z,90.26
2022-12-03T23:41:51.972Z,90.32
2022-12-03T23:44:20.346Z,90.46
2022-12-03T23:46:49.060Z,90.59
2022-12-03T23:49:17.616Z,90.59
2022-12-03T23:51:46.098Z,90.50
2022-12-03T23:54:14.683Z,90.45
2022-12-03T23:56:43.166Z,90.88
2022-12-03T23:59:11.593Z,91.03
